Time;durP1;ratioP1;P1;durP2;ratioP2;P2;SDS_P1;SDS_P2;PMS_P1;PMS_P2;Temp;Humidity;BMP_temperature;BMP_pressure;BME280_temperature;BME280_humidity;BME280_pressure;Samples;Min_cycle;Max_cycle;Signal;HPM_P1;HPM_P2
2023/07/25 00:00:14;;;;;;;3.53;1.20;;;13.60;99.90;;;;;;4885776;28;20039;-73
2023/07/25 00:02:40;;;;;;;7.57;1.20;;;13.70;99.90;;;;;;4934935;28;20533;-73
2023/07/25 00:05:07;;;;;;;5.13;1.50;;;13.70;99.90;;;;;;4930078;28;20031;-73
2023/07/25 00:07:34;;;;;;;5.00;1.15;;;13.70;99.90;;;;;;4901780;28;20471;-73
2023/07/25 00:10:00;;;;;;;3.70;1.10;;;13.70;99.90;;;;;;4905375;28;20050;-73
2023/07/25 00:12:26;;;;;;;3.65;0.80;;;13.70;99.90;;;;;;4918646;28;20540;-73
2023/07/25 00:14:53;;;;;;;2.97;0.93;;;13.70;99.90;;;;;;4930228;28;20044;-73
2023/07/25 00:17:20;;;;;;;2.58;0.73;;;13.80;99.90;;;;;;4932467;28;20039;-73
2023/07/25 00:19:46;;;;;;;5.05;1.00;;;13.70;99.90;;;;;;4900907;28;20062;-73
2023/07/25 00:22:12;;;;;;;2.95;0.90;;;13.70;99.90;;;;;;4934818;28;20471;-73
2023/07/25 00:24:39;;;;;;;4.05;1.15;;;13.70;99.90;;;;;;4934966;28;20040;-73
2023/07/25 00:27:05;;;;;;;3.75;0.80;;;13.70;99.90;;;;;;4907709;28;20039;-73
2023/07/25 00:29:32;;;;;;;3.25;0.63;;;13.70;99.90;;;;;;4920865;28;20054;-73
2023/07/25 00:31:58;;;;;;;4.30;0.90;;;13.70;99.90;;;;;;4906808;28;20398;-73
2023/07/25 00:34:25;;;;;;;4.30;1.30;;;13.60;99.90;;;;;;4920125;28;20062;-73
2023/07/25 00:36:51;;;;;;;3.80;0.93;;;13.60;99.90;;;;;;4919896;28;20483;-73
2023/07/25 00:39:18;;;;;;;4.90;1.10;;;13.50;99.90;;;;;;4936022;28;20750;-72
2023/07/25 00:41:44;;;;;;;3.38;1.00;;;13.50;99.90;;;;;;4921180;28;20407;-72
2023/07/25 00:44:11;;;;;;;5.53;0.90;;;13.40;99.90;;;;;;4920093;28;20387;-73
2023/07/25 00:46:37;;;;;;;2.53;0.80;;;13.40;99.90;;;;;;4917916;28;20050;-72
2023/07/25 00:49:05;;;;;;;4.32;1.10;;;13.30;99.90;;;;;;4917354;28;20027;-72
2023/07/25 00:51:32;;;;;;;5.90;1.00;;;13.30;99.90;;;;;;4922754;28;20050;-72
2023/07/25 00:53:59;;;;;;;6.18;0.80;;;13.30;99.90;;;;;;4939169;28;20039;-73
2023/07/25 00:56:26;;;;;;;4.85;1.25;;;13.30;99.90;;;;;;4910979;28;20494;-72
2023/07/25 00:58:56;;;;;;;4.18;0.98;;;13.20;99.90;;;;;;4939725;28;20281;-72
2023/07/25 01:01:23;;;;;;;7.05;1.67;;;13.20;99.90;;;;;;4923445;28;20390;-72
2023/07/25 01:03:52;;;;;;;4.68;1.17;;;13.10;99.90;;;;;;4944729;28;20495;-72
2023/07/25 01:06:18;;;;;;;3.83;1.10;;;13.10;99.90;;;;;;4930710;28;20035;-72
2023/07/25 01:08:49;;;;;;;3.35;1.08;;;13.10;99.90;;;;;;4920542;28;20027;-72
2023/07/25 01:11:15;;;;;;;8.20;1.67;;;13.10;99.90;;;;;;4921758;28;20050;-73
2023/07/25 01:13:42;;;;;;;4.93;1.38;;;13.00;99.90;;;;;;4923234;28;20034;-73
2023/07/25 01:16:17;;;;;;;2.63;1.10;;;13.00;99.90;;;;;;4903956;28;20066;-73
2023/07/25 01:18:45;;;;;;;5.13;1.45;;;13.00;99.90;;;;;;4933545;28;20035;-73
2023/07/25 01:21:12;;;;;;;2.38;1.40;;;13.00;99.90;;;;;;4938417;28;20035;-73
2023/07/25 01:23:40;;;;;;;4.63;1.33;;;12.90;99.90;;;;;;4933627;28;20109;-73
2023/07/25 01:26:08;;;;;;;5.82;1.30;;;12.90;99.90;;;;;;4921517;28;20050;-73
2023/07/25 01:28:37;;;;;;;3.03;1.20;;;12.90;99.90;;;;;;4904447;28;20039;-73
2023/07/25 01:31:04;;;;;;;2.83;1.33;;;12.90;99.90;;;;;;4918351;28;20043;-73
2023/07/25 01:33:30;;;;;;;2.55;1.25;;;12.80;99.90;;;;;;4946837;28;20046;-73
2023/07/25 01:35:58;;;;;;;3.47;1.70;;;12.80;99.90;;;;;;4917899;28;20031;-73
2023/07/25 01:38:25;;;;;;;2.72;1.38;;;12.80;99.90;;;;;;4923447;28;20062;-73
2023/07/25 01:40:51;;;;;;;8.68;2.38;;;12.80;99.90;;;;;;4921254;28;20046;-73
2023/07/25 01:43:17;;;;;;;7.32;2.35;;;12.80;99.90;;;;;;4952368;28;20042;-73
2023/07/25 01:45:44;;;;;;;5.90;2.55;;;12.70;99.90;;;;;;4920516;28;20513;-73
2023/07/25 01:48:10;;;;;;;4.32;1.50;;;12.70;99.90;;;;;;4918386;28;20039;-73
2023/07/25 01:50:36;;;;;;;6.88;1.77;;;12.70;99.90;;;;;;4919015;28;20529;-73
2023/07/25 01:53:02;;;;;;;6.63;2.20;;;12.70;99.90;;;;;;4918158;28;20062;-73
2023/07/25 01:55:29;;;;;;;3.00;1.40;;;12.60;99.90;;;;;;4920147;28;20513;-73
2023/07/25 01:57:55;;;;;;;5.22;1.88;;;12.60;99.90;;;;;;4904753;28;20442;-73
2023/07/25 02:00:22;;;;;;;3.03;1.60;;;12.60;99.90;;;;;;4888543;28;20630;-73
2023/07/25 02:02:50;;;;;;;3.17;1.38;;;12.60;99.90;;;;;;4916136;28;20457;-73
2023/07/25 02:05:17;;;;;;;4.95;2.00;;;12.60;99.90;;;;;;4919322;28;20027;-73
2023/07/25 02:07:43;;;;;;;4.90;1.55;;;12.50;99.90;;;;;;4936845;28;20031;-73
2023/07/25 02:10:10;;;;;;;4.40;1.98;;;12.50;99.90;;;;;;4918882;28;20035;-73
2023/07/25 02:12:36;;;;;;;7.22;2.25;;;12.50;99.90;;;;;;4906642;28;20036;-73
2023/07/25 02:15:03;;;;;;;3.55;2.03;;;12.50;99.90;;;;;;4916242;28;20027;-73
2023/07/25 02:17:29;;;;;;;8.02;1.92;;;12.50;99.90;;;;;;4917370;28;20380;-73
2023/07/25 02:19:55;;;;;;;6.78;2.60;;;12.50;99.90;;;;;;4941377;28;20042;-73
2023/07/25 02:22:22;;;;;;;5.85;1.98;;;12.50;99.90;;;;;;4916897;28;20043;-73
2023/07/25 02:24:49;;;;;;;4.57;2.00;;;12.50;99.90;;;;;;4919343;28;20038;-73
2023/07/25 02:27:15;;;;;;;7.13;2.95;;;12.50;99.90;;;;;;4901187;28;20035;-73
2023/07/25 02:29:41;;;;;;;5.68;2.35;;;12.40;99.90;;;;;;4916533;28;20039;-73
2023/07/25 02:32:08;;;;;;;4.68;2.17;;;12.50;99.90;;;;;;4918674;28;21045;-73
2023/07/25 02:34:34;;;;;;;3.92;2.03;;;12.40;99.90;;;;;;4917089;28;20030;-73
2023/07/25 02:37:01;;;;;;;5.32;2.92;;;12.30;99.90;;;;;;4903993;28;20027;-73
2023/07/25 02:39:27;;;;;;;5.85;2.58;;;12.30;99.90;;;;;;4938920;28;20039;-73
2023/07/25 02:41:53;;;;;;;4.03;2.40;;;12.30;99.90;;;;;;4904004;28;20031;-73
2023/07/25 02:44:20;;;;;;;4.72;2.28;;;12.30;99.90;;;;;;4922155;28;20031;-73
2023/07/25 02:46:46;;;;;;;4.05;2.42;;;12.20;99.90;;;;;;4934306;28;20466;-72
2023/07/25 02:49:12;;;;;;;4.43;2.58;;;12.20;99.90;;;;;;4904998;28;20030;-73
2023/07/25 02:51:38;;;;;;;5.18;2.80;;;12.20;99.90;;;;;;4938987;28;20039;-73
2023/07/25 02:54:05;;;;;;;7.05;3.15;;;12.20;99.90;;;;;;4937357;28;20039;-73
2023/07/25 02:56:31;;;;;;;5.60;2.70;;;12.10;99.90;;;;;;4934866;28;20413;-73
2023/07/25 02:58:57;;;;;;;4.03;2.92;;;12.10;99.90;;;;;;4918188;28;20035;-73
2023/07/25 03:01:24;;;;;;;6.43;3.10;;;12.10;99.90;;;;;;4900538;28;20040;-73
2023/07/25 03:03:50;;;;;;;7.20;2.97;;;12.10;99.90;;;;;;4921208;28;20451;-73
2023/07/25 03:06:17;;;;;;;8.45;2.63;;;12.10;99.90;;;;;;4917636;28;20039;-73
2023/07/25 03:08:43;;;;;;;4.55;2.97;;;12.00;99.90;;;;;;4936628;28;20501;-73
2023/07/25 03:11:09;;;;;;;5.30;3.15;;;12.00;99.90;;;;;;4919058;28;20605;-73
2023/07/25 03:13:36;;;;;;;7.63;2.80;;;12.00;99.90;;;;;;4920692;28;20047;-73
2023/07/25 03:16:02;;;;;;;4.72;2.72;;;12.00;99.90;;;;;;4903361;28;20482;-73
2023/07/25 03:18:28;;;;;;;4.43;2.72;;;12.00;99.90;;;;;;4918300;28;20029;-72
2023/07/25 03:20:54;;;;;;;5.00;2.20;;;12.00;99.90;;;;;;4919612;28;20024;-73
2023/07/25 03:23:21;;;;;;;4.13;2.58;;;12.00;99.90;;;;;;4903037;28;20042;-73
2023/07/25 03:25:47;;;;;;;6.00;2.85;;;12.00;99.90;;;;;;4922568;28;20502;-73
2023/07/25 03:28:14;;;;;;;4.28;2.50;;;12.00;99.90;;;;;;4917182;28;20039;-73
2023/07/25 03:30:40;;;;;;;5.95;3.60;;;12.00;99.90;;;;;;4903091;28;20047;-73
2023/07/25 03:33:07;;;;;;;7.68;3.92;;;12.00;99.90;;;;;;4934388;28;20043;-73
2023/07/25 03:35:33;;;;;;;6.85;3.65;;;12.10;99.90;;;;;;4933385;28;20035;-73
2023/07/25 03:37:59;;;;;;;4.13;3.00;;;12.00;99.90;;;;;;4919456;28;20470;-73
2023/07/25 03:40:26;;;;;;;7.65;2.83;;;12.00;99.90;;;;;;4917400;28;20035;-73
2023/07/25 03:42:52;;;;;;;5.07;2.17;;;12.00;99.90;;;;;;4931883;28;20070;-72
2023/07/25 03:45:18;;;;;;;7.93;3.33;;;12.00;99.90;;;;;;4919204;28;20039;-73
2023/07/25 03:47:45;;;;;;;7.30;3.65;;;12.00;99.90;;;;;;4915622;28;20039;-73
2023/07/25 03:50:11;;;;;;;7.18;3.22;;;12.00;99.90;;;;;;4929974;28;20043;-73
2023/07/25 03:52:37;;;;;;;8.35;2.80;;;12.00;99.90;;;;;;4920627;28;20031;-73
2023/07/25 03:55:04;;;;;;;6.72;3.42;;;12.00;99.90;;;;;;4931288;28;20493;-73
2023/07/25 03:57:30;;;;;;;5.80;3.17;;;12.00;99.90;;;;;;4929077;28;20051;-73
2023/07/25 03:59:57;;;;;;;7.80;2.88;;;12.00;99.90;;;;;;4906833;28;20031;-73
2023/07/25 04:02:23;;;;;;;5.65;2.88;;;12.00;99.90;;;;;;4939121;28;20031;-73
2023/07/25 04:04:50;;;;;;;4.18;2.72;;;12.00;99.90;;;;;;4906565;28;20042;-73
2023/07/25 04:07:16;;;;;;;4.57;2.70;;;12.00;99.90;;;;;;4923640;28;20501;-73
2023/07/25 04:09:42;;;;;;;5.97;2.90;;;12.00;99.90;;;;;;4924886;28;20410;-73
2023/07/25 04:12:08;;;;;;;6.78;3.25;;;12.00;99.90;;;;;;4936022;28;20117;-73
2023/07/25 04:14:35;;;;;;;4.65;3.25;;;12.00;99.90;;;;;;4920866;28;20031;-73
2023/07/25 04:17:01;;;;;;;11.63;4.15;;;12.00;99.90;;;;;;4922079;28;20041;-73
2023/07/25 04:19:27;;;;;;;4.97;3.03;;;12.00;99.90;;;;;;4923421;28;20024;-73
2023/07/25 04:21:54;;;;;;;5.88;3.10;;;12.00;99.90;;;;;;4922078;28;20046;-73
2023/07/25 04:24:20;;;;;;;6.10;2.72;;;12.10;99.90;;;;;;4922255;28;20066;-73
2023/07/25 04:26:46;;;;;;;6.13;3.00;;;12.00;99.90;;;;;;4920150;28;20031;-73
2023/07/25 04:29:13;;;;;;;5.28;3.10;;;12.00;99.90;;;;;;4918752;28;20035;-73
2023/07/25 04:31:39;;;;;;;5.53;2.83;;;12.00;99.90;;;;;;4909817;28;20612;-73
2023/07/25 04:34:05;;;;;;;4.97;3.40;;;12.00;99.90;;;;;;4923697;28;20068;-73
2023/07/25 04:36:32;;;;;;;5.35;2.30;;;12.00;99.90;;;;;;4937878;28;20022;-73
2023/07/25 04:38:58;;;;;;;5.35;2.63;;;12.00;99.90;;;;;;4907438;28;20050;-73
2023/07/25 04:41:24;;;;;;;4.97;2.47;;;12.10;99.90;;;;;;4941821;28;20039;-73
2023/07/25 04:43:51;;;;;;;5.40;2.78;;;12.10;99.90;;;;;;4937860;28;20391;-73
2023/07/25 04:46:17;;;;;;;4.68;2.50;;;12.10;99.90;;;;;;4919762;28;20047;-73
2023/07/25 04:48:43;;;;;;;4.72;3.13;;;12.10;99.90;;;;;;4919103;28;20027;-74
2023/07/25 04:51:10;;;;;;;4.15;2.60;;;12.20;99.90;;;;;;4922448;28;20462;-73
2023/07/25 04:53:36;;;;;;;6.97;3.10;;;12.10;99.90;;;;;;4907458;28;20046;-73
2023/07/25 04:56:02;;;;;;;7.10;2.90;;;12.20;99.90;;;;;;4920839;28;20039;-73
2023/07/25 04:58:29;;;;;;;5.40;2.67;;;12.30;99.90;;;;;;4905436;28;20038;-73
2023/07/25 05:00:55;;;;;;;5.75;3.08;;;12.30;99.90;;;;;;4910441;28;20049;-73
2023/07/25 05:03:22;;;;;;;3.97;2.17;;;12.40;99.90;;;;;;4920151;28;20027;-73
2023/07/25 05:05:51;;;;;;;6.82;2.20;;;12.50;99.90;;;;;;4924639;28;20046;-73
2023/07/25 05:08:17;;;;;;;5.78;2.80;;;12.60;99.90;;;;;;4945988;28;20473;-74
2023/07/25 05:10:44;;;;;;;3.28;2.20;;;12.70;99.90;;;;;;4903321;28;20410;-73
2023/07/25 05:13:10;;;;;;;8.30;3.22;;;12.80;99.90;;;;;;4930083;28;20467;-73
2023/07/25 05:15:38;;;;;;;4.53;2.35;;;12.90;99.90;;;;;;4902752;28;20046;-73
2023/07/25 05:18:04;;;;;;;6.68;3.03;;;13.00;99.90;;;;;;4936739;28;20039;-73
2023/07/25 05:20:31;;;;;;;6.35;2.65;;;13.00;99.90;;;;;;4939035;28;20325;-73
2023/07/25 05:22:57;;;;;;;5.47;2.05;;;13.10;99.90;;;;;;4923778;28;20031;-73
2023/07/25 05:25:23;;;;;;;4.72;2.50;;;13.30;99.90;;;;;;4904365;28;20043;-73
2023/07/25 05:27:49;;;;;;;4.32;2.60;;;13.50;99.90;;;;;;4938064;28;20241;-73
2023/07/25 05:30:16;;;;;;;5.88;3.15;;;13.60;99.90;;;;;;4921317;28;20027;-73
2023/07/25 05:32:42;;;;;;;5.47;2.47;;;13.80;99.90;;;;;;4937714;28;20039;-73
2023/07/25 05:35:08;;;;;;;5.47;2.85;;;13.90;99.90;;;;;;4919318;28;20457;-73
2023/07/25 05:37:36;;;;;;;6.05;2.47;;;14.10;99.90;;;;;;4937832;28;20513;-73
2023/07/25 05:40:04;;;;;;;4.82;2.25;;;14.30;99.90;;;;;;4916623;28;20289;-73
2023/07/25 05:42:31;;;;;;;5.72;2.08;;;14.50;99.90;;;;;;4936908;28;20035;-73
2023/07/25 05:44:59;;;;;;;5.78;2.30;;;14.70;99.90;;;;;;4919714;28;20050;-73
2023/07/25 05:47:25;;;;;;;7.63;3.58;;;14.90;99.90;;;;;;4917161;28;20043;-73
2023/07/25 05:49:52;;;;;;;8.90;2.67;;;15.20;99.90;;;;;;4934766;28;20023;-74
2023/07/25 05:52:18;;;;;;;6.03;2.83;;;15.30;99.90;;;;;;4939085;28;20512;-74
2023/07/25 05:54:44;;;;;;;6.18;2.40;;;15.40;99.90;;;;;;4933697;28;20391;-74
2023/07/25 05:57:11;;;;;;;6.15;2.72;;;15.40;99.90;;;;;;4930756;28;20035;-75
2023/07/25 05:59:40;;;;;;;4.95;2.22;;;15.40;99.90;;;;;;4915256;28;20042;-75
2023/07/25 06:02:07;;;;;;;8.23;3.85;;;15.50;99.90;;;;;;4922293;28;20612;-75
2023/07/25 06:04:34;;;;;;;7.78;3.60;;;15.60;99.90;;;;;;4938398;28;20031;-73
2023/07/25 06:07:00;;;;;;;5.80;2.70;;;15.70;99.90;;;;;;4935086;28;20036;-74
2023/07/25 06:09:26;;;;;;;6.00;2.10;;;15.70;99.90;;;;;;4922086;28;20038;-74
2023/07/25 06:11:55;;;;;;;3.58;2.33;;;15.80;99.90;;;;;;4917006;28;20387;-72
2023/07/25 06:14:21;;;;;;;11.88;4.22;;;15.90;99.90;;;;;;4923688;28;20039;-86
2023/07/25 06:16:48;;;;;;;5.22;2.67;;;15.90;99.90;;;;;;4919406;28;20039;-77
2023/07/25 06:19:14;;;;;;;6.28;3.03;;;15.90;99.90;;;;;;4917479;28;20047;-76
2023/07/25 06:21:40;;;;;;;7.63;4.45;;;15.80;99.90;;;;;;4918906;28;20514;-76
2023/07/25 06:24:07;;;;;;;9.80;5.00;;;15.80;99.90;;;;;;4932829;28;20035;-76
2023/07/25 06:26:33;;;;;;;7.03;3.45;;;15.70;99.90;;;;;;4932862;28;20043;-76
2023/07/25 06:29:00;;;;;;;8.65;3.40;;;15.60;99.90;;;;;;4917406;28;20039;-77
2023/07/25 06:31:26;;;;;;;5.13;2.30;;;15.60;99.90;;;;;;4889091;28;20474;-79
2023/07/25 06:33:52;;;;;;;7.55;3.33;;;15.70;99.90;;;;;;4935253;28;20027;-75
2023/07/25 06:36:19;;;;;;;9.15;4.40;;;15.70;99.90;;;;;;4935965;28;20038;-76
2023/07/25 06:38:45;;;;;;;7.22;3.58;;;15.80;99.90;;;;;;4935795;28;20038;-78
2023/07/25 06:41:12;;;;;;;7.88;4.13;;;15.90;99.90;;;;;;4913604;28;20111;-76
2023/07/25 06:43:38;;;;;;;6.00;2.95;;;16.10;99.90;;;;;;4943442;28;20393;-77
2023/07/25 06:46:05;;;;;;;5.88;2.35;;;16.30;99.90;;;;;;4929582;28;20398;-76
2023/07/25 06:48:31;;;;;;;6.68;2.15;;;16.60;99.90;;;;;;4887865;28;20039;-76
2023/07/25 06:50:57;;;;;;;4.00;1.30;;;16.80;99.90;;;;;;4915842;28;20382;-76
2023/07/25 06:53:23;;;;;;;5.43;1.60;;;16.90;99.90;;;;;;4917005;28;20047;-77
2023/07/25 06:55:50;;;;;;;4.38;1.13;;;17.20;99.90;;;;;;4933152;28;20059;-75
2023/07/25 06:58:16;;;;;;;7.13;2.03;;;17.30;99.90;;;;;;4919430;28;20044;-76
2023/07/25 07:00:45;;;;;;;3.78;1.50;;;17.30;99.90;;;;;;4934915;28;20036;-76
2023/07/25 07:03:12;;;;;;;7.45;1.95;;;17.20;99.90;;;;;;4931426;28;20497;-76
2023/07/25 07:05:39;;;;;;;6.55;2.83;;;17.10;99.90;;;;;;4917355;28;20398;-75
2023/07/25 07:08:05;;;;;;;7.55;2.15;;;17.20;99.90;;;;;;4936349;28;22923;-76
2023/07/25 07:10:33;;;;;;;5.68;1.20;;;17.20;99.90;;;;;;4914459;28;20027;-74
2023/07/25 07:12:59;;;;;;;2.60;0.80;;;17.10;99.90;;;;;;4931489;28;20505;-76
2023/07/25 07:15:26;;;;;;;4.45;0.82;;;17.10;99.90;;;;;;4928400;28;20035;-74
2023/07/25 07:17:52;;;;;;;4.53;0.95;;;17.10;99.90;;;;;;4932863;28;20031;-75
2023/07/25 07:20:19;;;;;;;2.88;0.50;;;17.10;99.90;;;;;;4947348;28;20047;-75
2023/07/25 07:22:45;;;;;;;2.65;0.75;;;17.00;99.90;;;;;;4933113;28;20497;-75
2023/07/25 07:25:12;;;;;;;2.30;0.50;;;16.90;99.90;;;;;;4931975;28;20050;-75
2023/07/25 07:27:38;;;;;;;3.15;0.80;;;16.80;99.90;;;;;;4901157;28;20042;-76
2023/07/25 07:30:05;;;;;;;3.10;0.60;;;16.80;99.90;;;;;;4886026;28;20027;-75
2023/07/25 07:32:32;;;;;;;2.47;0.35;;;16.90;99.90;;;;;;4935307;28;20035;-75
2023/07/25 07:34:58;;;;;;;3.45;0.40;;;16.90;99.90;;;;;;4919539;28;20043;-75
2023/07/25 07:37:25;;;;;;;3.78;0.60;;;17.00;99.90;;;;;;4919107;28;21182;-75
2023/07/25 07:39:51;;;;;;;3.53;0.70;;;17.00;99.90;;;;;;4902446;28;20035;-75
2023/07/25 07:42:17;;;;;;;6.32;0.77;;;17.00;99.90;;;;;;4933883;28;20067;-75
2023/07/25 07:44:44;;;;;;;2.05;0.30;;;17.10;99.90;;;;;;4937471;28;20489;-75
2023/07/25 07:47:10;;;;;;;3.63;0.40;;;17.30;99.90;;;;;;4934138;28;20043;-75
2023/07/25 07:49:36;;;;;;;2.60;0.40;;;17.50;99.90;;;;;;4952671;28;20039;-75
2023/07/25 07:52:03;;;;;;;4.68;0.50;;;17.50;99.90;;;;;;4934757;28;20039;-75
2023/07/25 07:54:29;;;;;;;2.55;0.47;;;17.50;99.90;;;;;;4915967;28;20035;-75
2023/07/25 07:56:56;;;;;;;4.95;1.10;;;17.50;99.90;;;;;;4915513;28;20042;-75
2023/07/25 07:59:22;;;;;;;3.67;1.20;;;17.60;99.90;;;;;;4935107;28;20034;-74
2023/07/25 08:01:48;;;;;;;5.38;1.45;;;17.70;99.90;;;;;;4920662;28;20040;-74
2023/07/25 08:04:15;;;;;;;2.95;0.65;;;17.90;99.90;;;;;;4917936;28;20035;-74
2023/07/25 08:06:42;;;;;;;2.85;0.50;;;18.10;99.90;;;;;;4916670;28;21577;-74
2023/07/25 08:09:08;;;;;;;4.10;0.50;;;18.40;99.90;;;;;;4918908;28;20039;-74
2023/07/25 08:11:34;;;;;;;2.80;0.43;;;18.60;99.90;;;;;;4935378;28;20407;-75
2023/07/25 08:14:01;;;;;;;3.20;0.65;;;18.70;99.90;;;;;;4912575;28;20431;-74
2023/07/25 08:16:27;;;;;;;2.25;0.32;;;18.80;99.90;;;;;;4933754;28;20031;-74
2023/07/25 08:18:54;;;;;;;2.97;0.43;;;18.80;99.90;;;;;;4945210;28;20039;-74
2023/07/25 08:21:20;;;;;;;4.07;0.40;;;18.90;99.90;;;;;;4917700;28;20043;-75
2023/07/25 08:23:46;;;;;;;1.77;0.50;;;18.90;99.90;;;;;;4915092;28;20035;-83
2023/07/25 08:26:13;;;;;;;3.20;0.40;;;18.90;99.90;;;;;;4935344;28;20040;-76
2023/07/25 08:28:40;;;;;;;5.32;2.65;;;19.00;99.90;;;;;;4916510;28;20039;-76
2023/07/25 08:31:06;;;;;;;7.03;3.10;;;19.20;99.90;;;;;;4919749;28;20035;-75
2023/07/25 08:33:36;;;;;;;3.55;1.00;;;19.20;99.90;;;;;;4935835;28;21263;-75
2023/07/25 08:36:03;;;;;;;1.25;0.38;;;19.30;99.90;;;;;;4935510;28;20497;-74
2023/07/25 08:38:29;;;;;;;2.38;0.30;;;19.30;99.90;;;;;;4932647;28;20703;-73
2023/07/25 08:41:10;;;;;;;2.63;0.30;;;19.30;99.90;;;;;;4932851;28;20046;-74
2023/07/25 08:43:39;;;;;;;1.50;0.30;;;19.50;99.90;;;;;;4933753;28;20032;-74
2023/07/25 08:46:10;;;;;;;2.20;0.35;;;19.70;99.90;;;;;;4939301;28;20028;-74
2023/07/25 08:48:41;;;;;;;2.53;0.30;;;20.00;99.90;;;;;;4939748;28;20031;-74
2023/07/25 08:51:22;;;;;;;7.30;0.70;;;20.20;99.90;;;;;;4950826;28;20067;-75
2023/07/25 08:54:11;;;;;;;2.30;0.30;;;20.30;99.90;;;;;;4895939;28;20043;-75
2023/07/25 08:56:38;;;;;;;1.70;0.30;;;20.30;99.90;;;;;;4931942;28;20458;-74
2023/07/25 08:59:06;;;;;;;3.72;0.40;;;20.20;99.90;;;;;;4903967;28;20038;-75
2023/07/25 09:01:32;;;;;;;1.70;0.30;;;19.90;99.90;;;;;;4945983;28;20044;-75
2023/07/25 09:04:01;;;;;;;1.30;0.30;;;19.60;99.90;;;;;;4919754;28;20032;-74
2023/07/25 09:06:31;;;;;;;3.50;0.68;;;19.40;99.90;;;;;;4919366;28;20038;-74
2023/07/25 09:08:59;;;;;;;3.50;0.60;;;19.30;99.90;;;;;;4919036;28;20051;-73
2023/07/25 09:11:26;;;;;;;5.10;1.52;;;19.30;99.90;;;;;;4937883;28;20401;-74
2023/07/25 09:13:52;;;;;;;2.45;0.60;;;19.30;99.90;;;;;;4917024;28;20037;-74
2023/07/25 09:16:19;;;;;;;1.92;0.50;;;19.40;99.90;;;;;;4937241;28;20030;-74
2023/07/25 09:18:45;;;;;;;2.25;0.40;;;19.40;99.90;;;;;;4917329;28;20031;-74
2023/07/25 09:21:12;;;;;;;2.08;0.35;;;19.40;99.90;;;;;;4937043;28;20024;-74
2023/07/25 09:23:40;;;;;;;2.65;0.30;;;19.40;99.90;;;;;;4916890;28;20023;-75
2023/07/25 09:26:10;;;;;;;6.88;5.38;;;19.30;99.90;;;;;;4935639;28;20039;-75
2023/07/25 09:28:50;;;;;;;4.22;1.40;;;19.30;99.90;;;;;;4960881;28;20049;-75
2023/07/25 09:31:19;;;;;;;2.50;1.00;;;19.30;99.90;;;;;;4945610;28;20035;-73
2023/07/25 09:33:50;;;;;;;1.83;0.55;;;19.60;99.90;;;;;;4934406;28;20027;-75
2023/07/25 09:36:20;;;;;;;2.17;0.50;;;19.90;99.90;;;;;;4935244;28;20019;-74
2023/07/25 09:38:50;;;;;;;2.63;0.40;;;20.30;99.90;;;;;;4918678;28;20291;-74
2023/07/25 09:41:18;;;;;;;1.55;0.28;;;20.50;99.90;;;;;;4917084;28;20054;-73
2023/07/25 09:43:44;;;;;;;1.45;0.20;;;20.70;99.90;;;;;;4917613;28;20039;-75
2023/07/25 09:46:12;;;;;;;3.08;0.38;;;20.90;99.90;;;;;;4934049;28;20227;-74
2023/07/25 09:48:47;;;;;;;2.80;0.20;;;21.20;99.90;;;;;;4915071;28;20491;-73
2023/07/25 09:51:14;;;;;;;1.13;0.20;;;21.50;99.90;;;;;;4933271;28;20031;-73
2023/07/25 09:53:45;;;;;;;3.45;0.20;;;21.50;99.90;;;;;;4937460;28;20039;-73
2023/07/25 09:56:12;;;;;;;0.82;0.10;;;21.40;99.90;;;;;;4921894;28;20042;-72
2023/07/25 09:58:39;;;;;;;1.10;0.20;;;21.20;99.90;;;;;;4917476;28;20039;-73
2023/07/25 10:01:09;;;;;;;4.70;1.25;;;21.10;99.90;;;;;;4907238;28;20490;-73
2023/07/25 10:03:37;;;;;;;4.97;1.40;;;21.20;99.90;;;;;;4920353;28;20583;-73
2023/07/25 10:06:04;;;;;;;2.20;0.40;;;21.30;99.90;;;;;;4933235;28;20490;-73
2023/07/25 10:08:31;;;;;;;1.95;0.20;;;21.50;99.90;;;;;;4932153;28;20549;-72
2023/07/25 10:10:58;;;;;;;1.52;0.13;;;21.40;99.90;;;;;;4919836;28;20498;-73
2023/07/25 10:13:24;;;;;;;1.83;0.25;;;21.40;99.90;;;;;;4937031;28;20035;-73
2023/07/25 10:15:52;;;;;;;1.13;0.22;;;21.40;99.90;;;;;;4919920;28;20030;-73
2023/07/25 10:18:23;;;;;;;0.82;0.20;;;21.40;99.90;;;;;;4945173;28;20393;-73
2023/07/25 10:20:51;;;;;;;1.80;0.20;;;21.80;99.90;;;;;;4917290;28;20035;-73
2023/07/25 10:23:18;;;;;;;2.03;0.20;;;22.10;99.90;;;;;;4899016;28;20043;-73
2023/07/25 10:25:46;;;;;;;1.98;0.20;;;22.50;99.90;;;;;;4921996;28;20055;-73
2023/07/25 10:28:20;;;;;;;2.00;0.20;;;22.70;99.90;;;;;;4931121;28;20043;-73
2023/07/25 10:30:48;;;;;;;2.22;0.30;;;22.80;99.40;;;;;;4933388;28;20036;-73
2023/07/25 10:33:16;;;;;;;1.83;0.28;;;22.70;99.20;;;;;;4929208;28;20044;-73
2023/07/25 10:36:01;;;;;;;0.90;0.30;;;22.60;99.50;;;;;;4914044;28;20048;-73
2023/07/25 10:38:48;;;;;;;0.73;0.20;;;22.60;99.90;;;;;;4934405;28;20046;-73
2023/07/25 10:41:18;;;;;;;0.85;0.17;;;22.70;99.60;;;;;;4934583;28;20378;-74
2023/07/25 10:43:45;;;;;;;0.80;0.20;;;22.80;98.60;;;;;;4936957;28;20050;-75
2023/07/25 10:46:19;;;;;;;1.30;0.20;;;23.00;98.50;;;;;;4921255;28;20043;-74
2023/07/25 10:48:50;;;;;;;2.22;0.20;;;23.20;98.10;;;;;;4920040;28;20426;-74
2023/07/25 10:51:18;;;;;;;2.40;0.30;;;23.40;97.50;;;;;;4897407;28;20043;-74
2023/07/25 10:54:12;;;;;;;2.83;0.20;;;23.70;96.70;;;;;;4923692;28;20039;-75
2023/07/25 10:56:39;;;;;;;2.35;0.40;;;24.10;96.60;;;;;;4902014;28;20035;-75
2023/07/25 10:59:10;;;;;;;0.75;0.20;;;24.50;96.20;;;;;;4929273;28;20047;-75
2023/07/25 11:01:46;;;;;;;1.90;0.80;;;25.00;95.10;;;;;;4916787;28;20051;-76
2023/07/25 11:04:30;;;;;;;1.95;0.50;;;25.30;94.10;;;;;;4936296;28;20035;-76
2023/07/25 11:07:10;;;;;;;1.42;0.40;;;25.10;93.50;;;;;;4933708;28;20065;-76
2023/07/25 11:09:44;;;;;;;2.13;0.30;;;24.50;93.10;;;;;;4935874;28;20035;-78
2023/07/25 11:12:11;;;;;;;0.50;0.20;;;24.00;93.60;;;;;;4932672;28;20059;-75
2023/07/25 11:14:42;;;;;;;1.08;0.30;;;23.40;92.70;;;;;;4932668;28;20035;-75
2023/07/25 11:17:10;;;;;;;1.40;0.28;;;23.00;93.20;;;;;;4915578;28;20039;-75
2023/07/25 11:19:36;;;;;;;2.25;0.30;;;23.10;93.80;;;;;;4912630;28;20043;-75
2023/07/25 11:22:09;;;;;;;1.75;0.30;;;23.70;93.90;;;;;;4914815;28;20039;-74
2023/07/25 11:24:43;;;;;;;1.52;0.20;;;24.60;93.30;;;;;;4916884;28;20043;-74
2023/07/25 11:27:11;;;;;;;1.40;0.30;;;25.10;91.20;;;;;;4937765;28;20031;-74
2023/07/25 11:29:37;;;;;;;1.05;0.30;;;24.90;90.80;;;;;;4929632;28;20031;-74
2023/07/25 11:32:04;;;;;;;1.58;0.22;;;24.80;91.00;;;;;;4934051;28;20057;-74
2023/07/25 11:34:30;;;;;;;1.38;0.20;;;25.10;90.00;;;;;;4940931;28;20023;-74
2023/07/25 11:36:56;;;;;;;2.35;0.30;;;25.60;89.20;;;;;;4916085;28;20362;-74
2023/07/25 11:39:23;;;;;;;1.20;0.30;;;26.20;89.70;;;;;;4915102;28;20031;-74
2023/07/25 11:41:50;;;;;;;0.38;0.15;;;26.80;88.00;;;;;;4918639;28;20053;-75
2023/07/25 11:44:18;;;;;;;1.55;0.30;;;27.40;86.30;;;;;;4902638;28;20406;-74
2023/07/25 11:46:55;;;;;;;1.75;0.50;;;28.00;85.00;;;;;;4935033;28;20467;-74
2023/07/25 11:49:22;;;;;;;1.63;0.50;;;28.60;81.30;;;;;;4915794;28;20038;-75
2023/07/25 11:51:48;;;;;;;0.40;0.10;;;28.20;77.50;;;;;;4933811;28;20054;-75
2023/07/25 11:54:15;;;;;;;0.60;0.20;;;27.30;76.10;;;;;;4917075;28;20047;-74
2023/07/25 11:56:42;;;;;;;1.15;0.20;;;26.40;76.10;;;;;;4944478;28;20031;-74
2023/07/25 11:59:12;;;;;;;0.95;0.28;;;25.60;76.10;;;;;;4932495;28;20471;-75
2023/07/25 12:01:39;;;;;;;1.90;0.30;;;25.30;77.60;;;;;;4913116;28;20552;-75
2023/07/25 12:04:15;;;;;;;0.93;0.20;;;25.80;78.30;;;;;;4902348;28;20043;-74
2023/07/25 12:06:42;;;;;;;0.52;0.17;;;26.70;78.40;;;;;;4931174;28;20031;-74
2023/07/25 12:09:08;;;;;;;1.05;0.20;;;27.60;77.80;;;;;;4934076;28;20039;-75
2023/07/25 12:11:42;;;;;;;1.50;0.20;;;28.50;76.20;;;;;;4933528;28;20020;-74
2023/07/25 12:14:12;;;;;;;1.33;0.28;;;29.20;73.50;;;;;;4916852;28;20193;-74
2023/07/25 12:16:42;;;;;;;0.98;0.20;;;29.70;71.60;;;;;;4928327;28;20437;-74
2023/07/25 12:19:10;;;;;;;1.70;0.30;;;30.20;69.00;;;;;;4934835;28;20031;-75
2023/07/25 12:21:38;;;;;;;1.27;0.30;;;29.60;68.10;;;;;;4921537;28;20046;-75
2023/07/25 12:24:07;;;;;;;1.50;0.40;;;28.50;69.00;;;;;;4939286;28;20027;-75
2023/07/25 12:26:47;;;;;;;1.77;0.30;;;27.40;68.90;;;;;;4905455;28;20039;-74
2023/07/25 12:29:15;;;;;;;1.77;0.30;;;26.50;70.20;;;;;;4903891;28;20058;-74
2023/07/25 12:31:42;;;;;;;1.10;0.20;;;25.80;71.80;;;;;;4940073;28;20595;-74
2023/07/25 12:34:09;;;;;;;3.08;0.30;;;25.40;71.80;;;;;;4918127;28;20035;-74
2023/07/25 12:36:35;;;;;;;1.05;0.30;;;25.60;73.10;;;;;;4932188;28;20062;-74
2023/07/25 12:39:02;;;;;;;1.15;0.20;;;26.60;73.80;;;;;;4937211;28;20347;-74
2023/07/25 12:41:28;;;;;;;2.03;0.30;;;27.90;71.40;;;;;;4902594;28;20035;-75
2023/07/25 12:43:55;;;;;;;1.00;0.22;;;28.90;71.10;;;;;;4902172;28;20043;-74
2023/07/25 12:46:21;;;;;;;2.72;0.30;;;29.90;70.50;;;;;;4919887;28;20039;-75
2023/07/25 12:48:48;;;;;;;1.23;0.32;;;29.70;68.50;;;;;;4935203;28;20039;-75